Logo AVAMET
Benvolgut visitant, si us plau, ingressa Recuperar contrasenya

Borriana Platja del Grau

Dades diàries. Acumulats / Últims 30 dies disponibles

Data Temperatura (°C) Humitat rel. (%) Pressió rel. (hPa) Vent (km/h) Precipitació
Mínima Mitjana Màxima Amplitud
tèrmica
Mínima Mitjana Màxima Mínima Mitjana Màxima Predom. Mitjana Ràfega
màxima
Total
(mm)
Índex-n
Mínima Mitjana Màxima Mínima Mitjana Màxima n
0 a 1
P0 max
mm 5'
Dades mensuals acumulades fins l'últim dia disponible
09/2019 14,5 19,7 22,4 22,7 24,0 25,6 27,7 13,2 31 77 97 1.009 1.021 1.031   15,1 93,3 61,0
Dades anuals acumulades fins l'últim dia disponible
2019 3,7 14,3 24,2 17,7 8,7 20,8 30,1 26,4 17 74 97 993 1.020 1.037   13,5 111,0 134,2
Últims 30 dies disponibles
20-09-2019 20,1     22,5     24,7 4,6 80 87 91 1.018 1.020 1.021 ESE 15,8 42,6 0,0
19-09-2019 19,3     22,5     25,1 5,8 68 80 90 1.019 1.019 1.021 ESE 14,7 32,2 0,0
18-09-2019 19,3     23,3     26,1 6,8 60 78 89 1.016 1.018 1.019 ESE 10,3 35,4 0,0
17-09-2019 19,9     22,9     25,1 5,2 76 84 92 1.017 1.019 1.021 ESE 11,7 35,4 0,0
16-09-2019 21,3     23,2     25,3 4,0 68 84 91 1.020 1.021 1.023 ESE 11,4 46,3 0,0
15-09-2019 21,3     23,2     25,7 4,4 70 82 92 1.021 1.023 1.026 ESE 22,1 53,7 0,0
14-09-2019 18,1     21,6     25,6 7,5 63 79 91 1.024 1.026 1.029 ESE 20,4 53,7 0,2
13-09-2019 18,6     21,8     24,0 5,4 57 77 93 1.026 1.028 1.030 O 23,1 69,2 11,0 0,37 1,90
12-09-2019 19,6     22,8     25,8 6,2 59 73 90 1.025 1.028 1.031 SO 21,2 69,2 0,2
11-09-2019 14,5     17,5     26,0 11,5 59 84 97 1.014 1.020 1.026 O 21,5 93,3 41,2 0,55 3,90
10-09-2019 18,3     22,1     26,0 7,7 31 58 86 1.009 1.012 1.016 O 14,6 62,9 1,0
09-09-2019 19,8     23,4     26,7 6,9 70 79 87 1.013 1.017 1.020 SO 12,8 35,2 0,0
08-09-2019 19,3     22,7     25,2 5,9 64 78 92 1.018 1.020 1.022 SSO 12,9 38,9 4,2 0,36 1,80
07-09-2019 20,0     22,1     24,0 4,0 54 69 83 1.021 1.022 1.024 SSO 11,1 31,5 0,0
06-09-2019 18,7     21,9     24,0 5,3 50 63 85 1.021 1.022 1.023 SSO 15,0 42,6 0,0
05-09-2019 20,4     23,9     26,4 6,0 47 67 91 1.019 1.020 1.022 SSO 12,9 37,0 0,0
04-09-2019 21,4     24,6     26,8 5,4 78 84 91 1.019 1.021 1.023 S 10,4 31,5 0,0
03-09-2019 21,4     24,0     26,2 4,8 64 77 90 1.022 1.023 1.024 S 11,6 31,5 0,0
02-09-2019 19,9     23,7     26,2 6,3 72 82 93 1.017 1.021 1.022 SSO 12,0 50,0 3,2 0,20
01-09-2019 22,4     25,1     27,7 5,3 71 80 89 1.015 1.016 1.018 SSO 15,6 33,8 0,0
31-08-2019 22,2     26,3     28,1 5,9 76 79 82 1.017 1.017 1.017 SSO 3,1 27,8 0,0
29-08-2019 21,0     24,0     26,7 5,7 70 78 86 1.021 1.021 1.023 SSO 10,9 25,9 0,0
28-08-2019 18,7     22,9     26,0 7,3 70 79 87 1.019 1.020 1.021 SSO 10,7 31,5 0,0
27-08-2019 17,2     22,1     26,8 9,6 71 83 94 1.016 1.018 1.020 SO 14,3 93,3 11,4 0,49 3,20
26-08-2019 20,7     24,2     26,7 6,0 68 78 90 1.017 1.019 1.020 S 12,6 48,3 0,2
25-08-2019 20,3     24,2     27,0 6,7 63 79 87 1.019 1.020 1.021 SSO 13,0 29,6 0,0
24-08-2019 20,0     24,2     27,0 7,0 65 75 83 1.020 1.021 1.022 S 11,0 27,8 0,0
23-08-2019 19,8     24,0     27,4 7,6 61 75 84 1.021 1.022 1.023 SSO 12,1 31,5 0,0
22-08-2019 18,9     23,3     26,5 7,6 66 77 86 1.021 1.022 1.023 SSO 14,6 37,0 0,0
21-08-2019 20,6     23,1     25,5 4,9 70 82 91 1.021 1.023 1.024 SO 11,0 37,0 5,2 0,27 0,80
Últims 13 mesos disponibles
08/2019 17,2 21,5 24,2 24,8 25,5 27,4 30,1 12,9 62 80 89 1.013 1.018 1.023 S 11,3 93,3 16,8
07/2019 20,4 21,8 23,4 25,1 26,1 27,4 29,4 9,0 61 77 87 1.008 1.017 1.024 S 12,4 64,8 15,4
06/2019 11,5 17,9 22,3 21,0 19,0 23,4 28,5 17,0 62 76 88 1.010 1.019 1.025 S 12,6 69,2 0,0
05/2019 8,8 14,2 17,3 17,2 15,7 20,0 27,8 19,0 64 78 86 1.012 1.019 1.027 S 13,0 51,8 9,8
04/2019 8,5 11,4 15,3 14,5 14,7 17,6 22,8 14,3 51 73 95 1.002 1.016 1.028 SSO 17,1 77,7 21,8
03/2019 6,8 9,7 13,3 13,4 13,1 16,9 24,3 17,5 47 70 96 1.013 1.025 1.033 SSO 12,9 55,5 7,4
02/2019 4,1 7,5 11,7 11,3 8,7 14,7 19,6 15,5 31 72 85 996 1.027 1.037 SSO 12,9 111,0 0,0
01/2019 3,7 6,4 10,8 10,8 11,2 15,2 22,2 18,5 39 63 79 1.003 1.021 1.033 OSO 14,3 99,9 2,0
12/2018 5,7 9,0 12,8 12,5 9,6 16,1 21,3 15,6 52 76 86 1.022 1.029 1.033 OSO 10,9 45,0
11/2018 8,1 11,8 15,7 14,7 14,6 18,3 21,7 13,6 54 75 90 1.004 1.018 1.027 SO 13,0 61,1 68,0
10/2018 7,2 14,7 18,3 18,2 14,3 21,5 25,4 18,2 48 74 94 1.002 1.017 1.028 13,6 82,0 144,4
09/2018 17,1 20,2 22,1 23,5 23,5 26,3 28,4 11,3 63 80 88 1.015 1.022 1.031 12,4 59,5 71,2
08/2018 20,0 22,7 27,1 25,8 25,3 28,1 31,3 11,3 67 76 84 1.015 1.019 1.024 12,5 74,0 8,2
Tots els anys disponibles
Temperatura (°C)
Humitat relativa (%)
Velocitat del vent i ràfega màxima (km/h)
Direcció del vent (°)
Pressió (hPa)
Precipitació (mm)
Nota sobre les dades: s'avisa a l'usuari de la provisionalitat i no oficialitat d'aquestes dades
Logo AVAMET blanc
Web allotjada a Sollutia
Llicència de Creative CommonsLa web d'AVAMET i els seus continguts estan subjectes a una llicència de
Reconeixement - No Comercial - Compartir igual
Properes estacions: Altea - Club Nàutic d'Altea (Soci),    - - - - -      Últimes estacions: Llíria - Bodegas del Campo (Soci), La Pobla Tornesa (Soci), Quartell (Soci), Alzira - Est (Soci/Inforatge), San Miguel de las Salinas (MeteOrihuela), Segorbe (Inforatge), Alcalà de Xivert - Alcossebre (Inforatge), Moixent - la Foia (Soci), Callosa d'en Sarrià - Centre (Soci) - - -